BIRK/RKV METAR and TAF weather

Enter ICAO airport designator
Station Type Date Time Source
BIRK METAR 2018/04/19 13:00 UTC NOAA

BIRK 191300Z 12017KT 9999 FEW026 SCT041 BKN065 10/05 Q1003


Station Type Date Time Source
BIRK Decoded METAR 2018/04/19 13:00 UTC NOAA

Reykjavik, Iceland (BIRK) 64-08N 021-54W 61M
Apr 19, 2018 - 09:00 AM EDT / 2018.04.19 1300 UTC
Wind: from the ESE (120 degrees) at 20 MPH (17 KT):0
Visibility: greater than 7 mile(s):0
Sky conditions: mostly cloudy
Temperature: 50 F (10 C)
Dew Point: 41 F (5 C)
Relative Humidity: 71%
Pressure (altimeter): 29.62 in. Hg (1003 hPa)
ob: BIRK 191300Z 12017KT 9999 FEW026 SCT041 BKN065 10/05 Q1003
cycle: 13

Station Type Date Time Source
BIRK TAF 2018/04/19 12:54 UTC NOAA

TAF BIRK 191050Z 1912/2012 12013KT 9999 SCT020 BKN035 TX10/1916Z TN04/2004Z
TEMPO 1912/1914 8000 RADZ BR BKN012 OVC027
BECMG 1918/1921 10007KT


Example: see airport list